Pine Castle, Florida
Current Conditions -  °F | °C
As of 6:53 PM on Monday 24 Nov 2014 (Local Time) from KORL Reporting Station
Clear Clear  
Wind Chill: 80°   Ceiling: Unl
Heat Index: 83°   Visibility: 10mi
Dew Point: 68°   Wind: 5mph
Humidity: 67%   Direction: 210°SSW
Pressure: 29.96"   Gusts: NA
Location:  28.4877°N, 81.409°W
Report Text: KORL 242353Z 21004KT 10SM CLR 27/20 A2996 RMK AO2 SLP150 T02670200 10306 20267 53014
Loading
Personal Weather Stations






























Interactive Weather Map New forecast layout! Learn more

10-Day Weather Forecast

Advertisements
Track Severe Weather on mobile